sensor_id;sensor_type;location;lat;lon;timestamp;P1;durP1;ratioP1;P2;durP2;ratioP2
48859;SDS011;34679;51.436;-2.518;2023-04-06T00:01:31;9.15;;;8.35;;
48859;SDS011;34679;51.436;-2.518;2023-04-06T00:03:57;8.98;;;7.85;;
48859;SDS011;34679;51.436;-2.518;2023-04-06T00:06:22;9.90;;;8.93;;
48859;SDS011;34679;51.436;-2.518;2023-04-06T00:08:48;9.30;;;8.50;;
48859;SDS011;34679;51.436;-2.518;2023-04-06T00:11:14;9.57;;;8.60;;
48859;SDS011;34679;51.436;-2.518;2023-04-06T00:13:41;10.05;;;8.95;;
48859;SDS011;34679;51.436;-2.518;2023-04-06T00:16:07;9.90;;;9.00;;
48859;SDS011;34679;51.436;-2.518;2023-04-06T00:18:33;9.35;;;8.27;;
48859;SDS011;34679;51.436;-2.518;2023-04-06T00:20:59;11.57;;;9.25;;
48859;SDS011;34679;51.436;-2.518;2023-04-06T00:23:24;8.88;;;8.00;;
48859;SDS011;34679;51.436;-2.518;2023-04-06T00:25:50;8.80;;;7.90;;
48859;SDS011;34679;51.436;-2.518;2023-04-06T00:28:16;8.45;;;7.72;;
48859;SDS011;34679;51.436;-2.518;2023-04-06T00:30:42;8.52;;;7.72;;
48859;SDS011;34679;51.436;-2.518;2023-04-06T00:33:08;9.40;;;8.50;;
48859;SDS011;34679;51.436;-2.518;2023-04-06T00:35:34;9.77;;;8.18;;
48859;SDS011;34679;51.436;-2.518;2023-04-06T00:37:59;9.40;;;7.95;;
48859;SDS011;34679;51.436;-2.518;2023-04-06T00:40:25;7.93;;;7.32;;
48859;SDS011;34679;51.436;-2.518;2023-04-06T00:42:53;9.38;;;8.48;;
48859;SDS011;34679;51.436;-2.518;2023-04-06T00:45:19;9.48;;;8.23;;
48859;SDS011;34679;51.436;-2.518;2023-04-06T00:47:45;8.88;;;8.07;;
48859;SDS011;34679;51.436;-2.518;2023-04-06T00:50:11;10.68;;;8.38;;
48859;SDS011;34679;51.436;-2.518;2023-04-06T00:52:37;7.93;;;7.13;;
48859;SDS011;34679;51.436;-2.518;2023-04-06T00:55:03;9.95;;;8.07;;
48859;SDS011;34679;51.436;-2.518;2023-04-06T00:57:29;10.15;;;9.05;;
48859;SDS011;34679;51.436;-2.518;2023-04-06T00:59:56;8.82;;;8.02;;
48859;SDS011;34679;51.436;-2.518;2023-04-06T01:02:21;9.00;;;8.10;;
48859;SDS011;34679;51.436;-2.518;2023-04-06T01:04:48;8.95;;;8.13;;
48859;SDS011;34679;51.436;-2.518;2023-04-06T01:07:14;8.98;;;7.80;;
48859;SDS011;34679;51.436;-2.518;2023-04-06T01:09:40;8.75;;;8.00;;
48859;SDS011;34679;51.436;-2.518;2023-04-06T01:12:06;10.48;;;8.80;;
48859;SDS011;34679;51.436;-2.518;2023-04-06T01:14:32;8.95;;;8.05;;
48859;SDS011;34679;51.436;-2.518;2023-04-06T01:16:58;8.85;;;8.00;;
48859;SDS011;34679;51.436;-2.518;2023-04-06T01:19:25;11.10;;;8.18;;
48859;SDS011;34679;51.436;-2.518;2023-04-06T01:21:51;8.32;;;7.57;;
48859;SDS011;34679;51.436;-2.518;2023-04-06T01:24:18;8.02;;;7.43;;
48859;SDS011;34679;51.436;-2.518;2023-04-06T01:26:44;7.75;;;6.95;;
48859;SDS011;34679;51.436;-2.518;2023-04-06T01:29:10;10.05;;;7.60;;
48859;SDS011;34679;51.436;-2.518;2023-04-06T01:31:36;7.53;;;6.82;;
48859;SDS011;34679;51.436;-2.518;2023-04-06T01:34:02;7.82;;;7.13;;
48859;SDS011;34679;51.436;-2.518;2023-04-06T01:36:28;7.68;;;7.07;;
48859;SDS011;34679;51.436;-2.518;2023-04-06T01:38:53;7.07;;;6.57;;
48859;SDS011;34679;51.436;-2.518;2023-04-06T01:41:19;7.20;;;6.50;;
48859;SDS011;34679;51.436;-2.518;2023-04-06T01:43:46;8.13;;;7.43;;
48859;SDS011;34679;51.436;-2.518;2023-04-06T01:46:13;7.22;;;6.63;;
48859;SDS011;34679;51.436;-2.518;2023-04-06T01:48:38;7.70;;;6.93;;
48859;SDS011;34679;51.436;-2.518;2023-04-06T01:51:04;8.70;;;6.78;;
48859;SDS011;34679;51.436;-2.518;2023-04-06T01:53:30;7.10;;;6.50;;
48859;SDS011;34679;51.436;-2.518;2023-04-06T01:55:56;6.20;;;5.70;;
48859;SDS011;34679;51.436;-2.518;2023-04-06T01:58:21;6.63;;;6.13;;
48859;SDS011;34679;51.436;-2.518;2023-04-06T02:00:47;5.97;;;5.45;;
48859;SDS011;34679;51.436;-2.518;2023-04-06T02:03:13;5.93;;;5.43;;
48859;SDS011;34679;51.436;-2.518;2023-04-06T02:05:39;6.00;;;5.60;;
48859;SDS011;34679;51.436;-2.518;2023-04-06T02:08:05;5.25;;;4.85;;
48859;SDS011;34679;51.436;-2.518;2023-04-06T02:10:32;5.35;;;4.93;;
48859;SDS011;34679;51.436;-2.518;2023-04-06T02:12:58;5.90;;;5.30;;
48859;SDS011;34679;51.436;-2.518;2023-04-06T02:15:25;3.95;;;3.65;;
48859;SDS011;34679;51.436;-2.518;2023-04-06T02:17:51;3.10;;;2.88;;
48859;SDS011;34679;51.436;-2.518;2023-04-06T02:20:17;3.30;;;2.78;;
48859;SDS011;34679;51.436;-2.518;2023-04-06T02:22:43;1.88;;;1.73;;
48859;SDS011;34679;51.436;-2.518;2023-04-06T02:25:09;2.75;;;1.20;;
48859;SDS011;34679;51.436;-2.518;2023-04-06T02:27:36;3.58;;;1.20;;
48859;SDS011;34679;51.436;-2.518;2023-04-06T02:30:04;1.20;;;1.05;;
48859;SDS011;34679;51.436;-2.518;2023-04-06T02:32:31;2.10;;;0.93;;
48859;SDS011;34679;51.436;-2.518;2023-04-06T02:34:56;0.63;;;0.50;;
48859;SDS011;34679;51.436;-2.518;2023-04-06T02:37:22;2.13;;;0.80;;
48859;SDS011;34679;51.436;-2.518;2023-04-06T02:39:49;1.20;;;0.90;;
48859;SDS011;34679;51.436;-2.518;2023-04-06T02:42:15;3.45;;;0.80;;
48859;SDS011;34679;51.436;-2.518;2023-04-06T02:44:44;3.08;;;1.20;;
48859;SDS011;34679;51.436;-2.518;2023-04-06T02:47:09;5.35;;;1.10;;
48859;SDS011;34679;51.436;-2.518;2023-04-06T02:49:35;5.18;;;1.25;;
48859;SDS011;34679;51.436;-2.518;2023-04-06T02:52:01;5.90;;;1.40;;
48859;SDS011;34679;51.436;-2.518;2023-04-06T02:54:28;3.08;;;1.15;;
48859;SDS011;34679;51.436;-2.518;2023-04-06T02:56:54;3.20;;;0.70;;
48859;SDS011;34679;51.436;-2.518;2023-04-06T02:59:19;3.33;;;1.02;;
48859;SDS011;34679;51.436;-2.518;2023-04-06T03:01:45;6.22;;;1.00;;
48859;SDS011;34679;51.436;-2.518;2023-04-06T03:04:11;4.90;;;1.05;;
48859;SDS011;34679;51.436;-2.518;2023-04-06T03:06:37;3.13;;;0.80;;
48859;SDS011;34679;51.436;-2.518;2023-04-06T03:09:03;3.63;;;0.80;;
48859;SDS011;34679;51.436;-2.518;2023-04-06T03:11:29;1.98;;;0.60;;
48859;SDS011;34679;51.436;-2.518;2023-04-06T03:13:55;3.95;;;0.98;;
48859;SDS011;34679;51.436;-2.518;2023-04-06T03:16:20;5.28;;;0.90;;
48859;SDS011;34679;51.436;-2.518;2023-04-06T03:18:46;5.65;;;0.95;;
48859;SDS011;34679;51.436;-2.518;2023-04-06T03:21:15;3.60;;;0.75;;
48859;SDS011;34679;51.436;-2.518;2023-04-06T03:23:41;5.65;;;0.88;;
48859;SDS011;34679;51.436;-2.518;2023-04-06T03:26:07;5.13;;;1.00;;
48859;SDS011;34679;51.436;-2.518;2023-04-06T03:28:33;2.58;;;1.05;;
48859;SDS011;34679;51.436;-2.518;2023-04-06T03:30:59;4.00;;;0.93;;
48859;SDS011;34679;51.436;-2.518;2023-04-06T03:33:25;2.60;;;1.00;;
48859;SDS011;34679;51.436;-2.518;2023-04-06T03:35:52;1.98;;;0.95;;
48859;SDS011;34679;51.436;-2.518;2023-04-06T03:38:18;2.70;;;0.90;;
48859;SDS011;34679;51.436;-2.518;2023-04-06T03:40:44;5.97;;;1.30;;
48859;SDS011;34679;51.436;-2.518;2023-04-06T03:43:10;11.75;;;1.38;;
48859;SDS011;34679;51.436;-2.518;2023-04-06T03:45:36;5.90;;;1.08;;
48859;SDS011;34679;51.436;-2.518;2023-04-06T03:48:02;19.50;;;1.80;;
48859;SDS011;34679;51.436;-2.518;2023-04-06T03:50:28;9.70;;;1.55;;
48859;SDS011;34679;51.436;-2.518;2023-04-06T03:52:54;13.73;;;2.33;;
48859;SDS011;34679;51.436;-2.518;2023-04-06T03:55:20;16.00;;;2.03;;
48859;SDS011;34679;51.436;-2.518;2023-04-06T03:57:46;19.15;;;2.47;;
48859;SDS011;34679;51.436;-2.518;2023-04-06T04:00:14;20.50;;;2.47;;
48859;SDS011;34679;51.436;-2.518;2023-04-06T04:02:40;30.40;;;3.22;;
48859;SDS011;34679;51.436;-2.518;2023-04-06T04:05:06;15.90;;;2.65;;
48859;SDS011;34679;51.436;-2.518;2023-04-06T04:07:32;18.45;;;2.80;;
48859;SDS011;34679;51.436;-2.518;2023-04-06T04:09:58;13.40;;;3.03;;
48859;SDS011;34679;51.436;-2.518;2023-04-06T04:12:23;24.40;;;3.08;;
48859;SDS011;34679;51.436;-2.518;2023-04-06T04:14:49;26.38;;;4.10;;
48859;SDS011;34679;51.436;-2.518;2023-04-06T04:17:15;26.55;;;6.32;;
48859;SDS011;34679;51.436;-2.518;2023-04-06T04:19:41;26.42;;;3.05;;
48859;SDS011;34679;51.436;-2.518;2023-04-06T04:22:06;32.60;;;3.28;;
48859;SDS011;34679;51.436;-2.518;2023-04-06T04:24:32;26.95;;;3.85;;
48859;SDS011;34679;51.436;-2.518;2023-04-06T04:26:59;19.52;;;3.55;;
48859;SDS011;34679;51.436;-2.518;2023-04-06T04:29:28;29.73;;;5.82;;
48859;SDS011;34679;51.436;-2.518;2023-04-06T04:31:54;34.03;;;5.00;;
48859;SDS011;34679;51.436;-2.518;2023-04-06T04:34:20;27.17;;;3.88;;
48859;SDS011;34679;51.436;-2.518;2023-04-06T04:36:48;29.73;;;4.15;;
48859;SDS011;34679;51.436;-2.518;2023-04-06T04:39:14;27.08;;;4.22;;
48859;SDS011;34679;51.436;-2.518;2023-04-06T04:41:40;25.75;;;4.13;;
48859;SDS011;34679;51.436;-2.518;2023-04-06T04:44:05;43.13;;;4.22;;
48859;SDS011;34679;51.436;-2.518;2023-04-06T04:46:31;22.65;;;3.17;;
48859;SDS011;34679;51.436;-2.518;2023-04-06T04:48:57;33.22;;;4.25;;
48859;SDS011;34679;51.436;-2.518;2023-04-06T04:51:22;31.67;;;4.00;;
48859;SDS011;34679;51.436;-2.518;2023-04-06T04:53:49;37.35;;;4.25;;
48859;SDS011;34679;51.436;-2.518;2023-04-06T04:56:15;33.15;;;3.95;;
48859;SDS011;34679;51.436;-2.518;2023-04-06T04:58:41;34.80;;;4.95;;
48859;SDS011;34679;51.436;-2.518;2023-04-06T05:01:07;31.77;;;4.00;;
48859;SDS011;34679;51.436;-2.518;2023-04-06T05:03:33;33.28;;;4.30;;
48859;SDS011;34679;51.436;-2.518;2023-04-06T05:05:59;34.28;;;3.33;;
48859;SDS011;34679;51.436;-2.518;2023-04-06T05:08:25;34.63;;;2.90;;
48859;SDS011;34679;51.436;-2.518;2023-04-06T05:10:50;24.48;;;3.80;;
48859;SDS011;34679;51.436;-2.518;2023-04-06T05:13:16;25.20;;;3.30;;
48859;SDS011;34679;51.436;-2.518;2023-04-06T05:15:42;26.88;;;4.20;;
48859;SDS011;34679;51.436;-2.518;2023-04-06T05:18:08;34.38;;;3.67;;
48859;SDS011;34679;51.436;-2.518;2023-04-06T05:20:34;34.17;;;4.22;;
48859;SDS011;34679;51.436;-2.518;2023-04-06T05:23:01;39.30;;;7.50;;
48859;SDS011;34679;51.436;-2.518;2023-04-06T05:25:27;18.83;;;3.83;;
48859;SDS011;34679;51.436;-2.518;2023-04-06T05:27:53;35.47;;;5.90;;
48859;SDS011;34679;51.436;-2.518;2023-04-06T05:30:20;34.55;;;5.63;;
48859;SDS011;34679;51.436;-2.518;2023-04-06T05:32:46;32.30;;;5.03;;
48859;SDS011;34679;51.436;-2.518;2023-04-06T05:35:12;32.03;;;6.03;;
48859;SDS011;34679;51.436;-2.518;2023-04-06T05:37:38;31.83;;;5.53;;
48859;SDS011;34679;51.436;-2.518;2023-04-06T05:40:05;33.45;;;7.47;;
48859;SDS011;34679;51.436;-2.518;2023-04-06T05:42:37;35.53;;;6.38;;
48859;SDS011;34679;51.436;-2.518;2023-04-06T05:45:07;39.20;;;6.80;;
48859;SDS011;34679;51.436;-2.518;2023-04-06T05:47:34;36.20;;;7.30;;
48859;SDS011;34679;51.436;-2.518;2023-04-06T05:50:00;36.72;;;7.18;;
48859;SDS011;34679;51.436;-2.518;2023-04-06T05:52:26;36.20;;;7.82;;
48859;SDS011;34679;51.436;-2.518;2023-04-06T05:54:52;36.05;;;7.60;;
48859;SDS011;34679;51.436;-2.518;2023-04-06T05:57:18;39.83;;;9.23;;
48859;SDS011;34679;51.436;-2.518;2023-04-06T05:59:44;42.88;;;10.13;;
48859;SDS011;34679;51.436;-2.518;2023-04-06T06:02:13;53.80;;;11.43;;
48859;SDS011;34679;51.436;-2.518;2023-04-06T06:04:39;47.63;;;11.80;;
48859;SDS011;34679;51.436;-2.518;2023-04-06T06:07:05;44.63;;;11.70;;
48859;SDS011;34679;51.436;-2.518;2023-04-06T06:09:30;42.78;;;10.63;;
48859;SDS011;34679;51.436;-2.518;2023-04-06T06:11:56;45.35;;;11.15;;
48859;SDS011;34679;51.436;-2.518;2023-04-06T06:14:22;44.70;;;12.35;;
48859;SDS011;34679;51.436;-2.518;2023-04-06T06:16:48;37.60;;;10.82;;
48859;SDS011;34679;51.436;-2.518;2023-04-06T06:19:14;37.60;;;10.25;;
48859;SDS011;34679;51.436;-2.518;2023-04-06T06:21:39;35.85;;;10.43;;
48859;SDS011;34679;51.436;-2.518;2023-04-06T06:24:06;42.22;;;10.77;;
48859;SDS011;34679;51.436;-2.518;2023-04-06T06:26:32;40.33;;;10.73;;
48859;SDS011;34679;51.436;-2.518;2023-04-06T06:29:00;36.67;;;10.93;;
48859;SDS011;34679;51.436;-2.518;2023-04-06T06:31:26;33.20;;;12.15;;
48859;SDS011;34679;51.436;-2.518;2023-04-06T06:33:51;36.17;;;12.90;;
48859;SDS011;34679;51.436;-2.518;2023-04-06T06:36:17;32.75;;;13.73;;
48859;SDS011;34679;51.436;-2.518;2023-04-06T06:38:43;44.22;;;13.48;;
48859;SDS011;34679;51.436;-2.518;2023-04-06T06:41:09;37.80;;;14.13;;
48859;SDS011;34679;51.436;-2.518;2023-04-06T06:43:35;50.03;;;14.48;;
48859;SDS011;34679;51.436;-2.518;2023-04-06T06:46:02;41.78;;;13.65;;
48859;SDS011;34679;51.436;-2.518;2023-04-06T06:48:28;50.40;;;15.23;;
48859;SDS011;34679;51.436;-2.518;2023-04-06T06:50:54;47.58;;;14.68;;
48859;SDS011;34679;51.436;-2.518;2023-04-06T06:53:20;46.45;;;14.80;;
48859;SDS011;34679;51.436;-2.518;2023-04-06T06:55:46;43.38;;;13.55;;
48859;SDS011;34679;51.436;-2.518;2023-04-06T06:58:13;32.80;;;13.05;;
48859;SDS011;34679;51.436;-2.518;2023-04-06T07:00:40;32.88;;;12.05;;
48859;SDS011;34679;51.436;-2.518;2023-04-06T07:03:05;35.95;;;13.80;;
48859;SDS011;34679;51.436;-2.518;2023-04-06T07:05:31;33.97;;;13.13;;
48859;SDS011;34679;51.436;-2.518;2023-04-06T07:07:57;23.77;;;10.93;;
48859;SDS011;34679;51.436;-2.518;2023-04-06T07:10:23;31.65;;;12.35;;
48859;SDS011;34679;51.436;-2.518;2023-04-06T07:12:49;31.70;;;10.18;;
48859;SDS011;34679;51.436;-2.518;2023-04-06T07:15:14;26.40;;;9.32;;
48859;SDS011;34679;51.436;-2.518;2023-04-06T07:17:41;24.15;;;9.93;;
48859;SDS011;34679;51.436;-2.518;2023-04-06T07:20:08;22.13;;;9.80;;
48859;SDS011;34679;51.436;-2.518;2023-04-06T07:22:34;27.02;;;8.18;;
48859;SDS011;34679;51.436;-2.518;2023-04-06T07:25:00;39.50;;;11.10;;
48859;SDS011;34679;51.436;-2.518;2023-04-06T07:27:26;22.88;;;8.40;;
48859;SDS011;34679;51.436;-2.518;2023-04-06T07:29:51;18.73;;;7.35;;
48859;SDS011;34679;51.436;-2.518;2023-04-06T07:32:17;17.27;;;5.50;;
48859;SDS011;34679;51.436;-2.518;2023-04-06T07:34:43;18.33;;;5.72;;
48859;SDS011;34679;51.436;-2.518;2023-04-06T07:37:10;23.30;;;6.22;;
48859;SDS011;34679;51.436;-2.518;2023-04-06T07:39:35;16.27;;;5.38;;
48859;SDS011;34679;51.436;-2.518;2023-04-06T07:42:01;19.63;;;4.95;;
48859;SDS011;34679;51.436;-2.518;2023-04-06T07:44:27;12.73;;;4.10;;
48859;SDS011;34679;51.436;-2.518;2023-04-06T07:46:53;17.40;;;4.90;;
48859;SDS011;34679;51.436;-2.518;2023-04-06T07:49:18;16.27;;;5.03;;
48859;SDS011;34679;51.436;-2.518;2023-04-06T07:51:45;12.80;;;4.40;;
48859;SDS011;34679;51.436;-2.518;2023-04-06T07:54:11;13.02;;;5.65;;
48859;SDS011;34679;51.436;-2.518;2023-04-06T07:56:37;15.32;;;4.70;;
48859;SDS011;34679;51.436;-2.518;2023-04-06T07:59:03;12.95;;;4.80;;
48859;SDS011;34679;51.436;-2.518;2023-04-06T08:01:28;20.50;;;4.32;;
48859;SDS011;34679;51.436;-2.518;2023-04-06T08:03:55;10.40;;;4.72;;
48859;SDS011;34679;51.436;-2.518;2023-04-06T08:06:21;11.40;;;4.80;;
48859;SDS011;34679;51.436;-2.518;2023-04-06T08:08:47;15.57;;;4.13;;
48859;SDS011;34679;51.436;-2.518;2023-04-06T08:11:13;20.52;;;5.00;;
48859;SDS011;34679;51.436;-2.518;2023-04-06T08:13:38;11.20;;;4.43;;
48859;SDS011;34679;51.436;-2.518;2023-04-06T08:16:04;11.77;;;3.45;;
48859;SDS011;34679;51.436;-2.518;2023-04-06T08:18:30;13.63;;;4.47;;
48859;SDS011;34679;51.436;-2.518;2023-04-06T08:20:56;11.02;;;4.40;;
48859;SDS011;34679;51.436;-2.518;2023-04-06T08:23:22;10.10;;;3.63;;
48859;SDS011;34679;51.436;-2.518;2023-04-06T08:25:47;13.85;;;4.07;;
48859;SDS011;34679;51.436;-2.518;2023-04-06T08:28:13;16.67;;;4.07;;
48859;SDS011;34679;51.436;-2.518;2023-04-06T08:30:39;10.13;;;3.75;;
48859;SDS011;34679;51.436;-2.518;2023-04-06T08:33:05;11.68;;;4.07;;
48859;SDS011;34679;51.436;-2.518;2023-04-06T08:35:31;13.00;;;4.85;;
48859;SDS011;34679;51.436;-2.518;2023-04-06T08:37:57;9.15;;;3.70;;
48859;SDS011;34679;51.436;-2.518;2023-04-06T08:40:23;11.60;;;4.32;;
48859;SDS011;34679;51.436;-2.518;2023-04-06T08:42:52;15.75;;;4.35;;
48859;SDS011;34679;51.436;-2.518;2023-04-06T08:45:21;10.93;;;4.38;;
48859;SDS011;34679;51.436;-2.518;2023-04-06T08:47:49;11.40;;;4.03;;
48859;SDS011;34679;51.436;-2.518;2023-04-06T08:50:16;11.32;;;3.17;;
48859;SDS011;34679;51.436;-2.518;2023-04-06T08:52:43;5.50;;;2.83;;
48859;SDS011;34679;51.436;-2.518;2023-04-06T08:55:11;9.98;;;3.17;;
48859;SDS011;34679;51.436;-2.518;2023-04-06T08:57:37;12.85;;;3.85;;
48859;SDS011;34679;51.436;-2.518;2023-04-06T09:00:04;17.00;;;4.07;;
48859;SDS011;34679;51.436;-2.518;2023-04-06T09:02:31;9.15;;;2.97;;
48859;SDS011;34679;51.436;-2.518;2023-04-06T09:04:57;8.38;;;2.80;;
48859;SDS011;34679;51.436;-2.518;2023-04-06T09:07:25;14.40;;;3.10;;
48859;SDS011;34679;51.436;-2.518;2023-04-06T09:09:51;6.95;;;2.28;;
48859;SDS011;34679;51.436;-2.518;2023-04-06T09:12:24;10.77;;;2.60;;
48859;SDS011;34679;51.436;-2.518;2023-04-06T09:14:51;8.48;;;2.45;;
48859;SDS011;34679;51.436;-2.518;2023-04-06T09:17:21;8.13;;;2.13;;
48859;SDS011;34679;51.436;-2.518;2023-04-06T09:19:47;6.20;;;2.38;;
48859;SDS011;34679;51.436;-2.518;2023-04-06T09:22:13;7.47;;;2.17;;
48859;SDS011;34679;51.436;-2.518;2023-04-06T09:24:52;9.20;;;2.40;;
48859;SDS011;34679;51.436;-2.518;2023-04-06T09:27:34;6.03;;;1.92;;
48859;SDS011;34679;51.436;-2.518;2023-04-06T09:32:30;13.65;;;1.55;;
48859;SDS011;34679;51.436;-2.518;2023-04-06T09:35:08;8.88;;;2.40;;
48859;SDS011;34679;51.436;-2.518;2023-04-06T09:37:34;4.22;;;1.48;;
48859;SDS011;34679;51.436;-2.518;2023-04-06T09:40:04;5.22;;;1.38;;
48859;SDS011;34679;51.436;-2.518;2023-04-06T09:42:32;7.75;;;1.85;;
48859;SDS011;34679;51.436;-2.518;2023-04-06T09:44:59;4.75;;;1.45;;
48859;SDS011;34679;51.436;-2.518;2023-04-06T09:47:25;4.97;;;1.67;;
48859;SDS011;34679;51.436;-2.518;2023-04-06T09:49:55;6.55;;;1.90;;
48859;SDS011;34679;51.436;-2.518;2023-04-06T09:52:26;6.70;;;1.50;;
48859;SDS011;34679;51.436;-2.518;2023-04-06T09:54:59;5.85;;;1.40;;
48859;SDS011;34679;51.436;-2.518;2023-04-06T10:00:06;11.27;;;1.67;;
48859;SDS011;34679;51.436;-2.518;2023-04-06T10:02:48;9.85;;;2.00;;
48859;SDS011;34679;51.436;-2.518;2023-04-06T10:05:57;11.05;;;2.30;;
48859;SDS011;34679;51.436;-2.518;2023-04-06T10:08:29;8.20;;;2.90;;
48859;SDS011;34679;51.436;-2.518;2023-04-06T10:10:58;9.63;;;2.22;;
48859;SDS011;34679;51.436;-2.518;2023-04-06T10:13:25;13.63;;;2.72;;
48859;SDS011;34679;51.436;-2.518;2023-04-06T10:15:51;11.80;;;2.67;;
48859;SDS011;34679;51.436;-2.518;2023-04-06T10:18:17;10.38;;;2.53;;
48859;SDS011;34679;51.436;-2.518;2023-04-06T10:20:49;12.98;;;2.95;;
48859;SDS011;34679;51.436;-2.518;2023-04-06T10:23:26;13.60;;;2.50;;
48859;SDS011;34679;51.436;-2.518;2023-04-06T10:25:58;15.65;;;2.88;;
48859;SDS011;34679;51.436;-2.518;2023-04-06T10:28:25;12.68;;;2.65;;
48859;SDS011;34679;51.436;-2.518;2023-04-06T10:30:59;11.48;;;4.03;;
48859;SDS011;34679;51.436;-2.518;2023-04-06T10:33:26;14.95;;;4.30;;
48859;SDS011;34679;51.436;-2.518;2023-04-06T10:35:52;25.05;;;5.18;;
48859;SDS011;34679;51.436;-2.518;2023-04-06T10:38:20;18.95;;;4.30;;
48859;SDS011;34679;51.436;-2.518;2023-04-06T10:40:47;15.15;;;3.88;;
48859;SDS011;34679;51.436;-2.518;2023-04-06T10:43:20;15.38;;;3.80;;
48859;SDS011;34679;51.436;-2.518;2023-04-06T10:45:56;13.30;;;3.05;;
48859;SDS011;34679;51.436;-2.518;2023-04-06T10:48:23;11.57;;;2.80;;
48859;SDS011;34679;51.436;-2.518;2023-04-06T10:50:52;11.52;;;3.28;;
48859;SDS011;34679;51.436;-2.518;2023-04-06T10:53:25;17.30;;;3.55;;
48859;SDS011;34679;51.436;-2.518;2023-04-06T10:55:52;9.40;;;2.60;;
48859;SDS011;34679;51.436;-2.518;2023-04-06T10:58:19;15.18;;;2.50;;
48859;SDS011;34679;51.436;-2.518;2023-04-06T11:00:49;13.85;;;2.70;;
48859;SDS011;34679;51.436;-2.518;2023-04-06T11:03:15;15.00;;;2.53;;
48859;SDS011;34679;51.436;-2.518;2023-04-06T11:05:45;16.80;;;2.50;;
48859;SDS011;34679;51.436;-2.518;2023-04-06T11:08:27;8.40;;;1.65;;
48859;SDS011;34679;51.436;-2.518;2023-04-06T11:13:44;9.65;;;2.40;;
48859;SDS011;34679;51.436;-2.518;2023-04-06T11:16:16;5.72;;;1.42;;
48859;SDS011;34679;51.436;-2.518;2023-04-06T11:18:54;7.18;;;1.25;;
48859;SDS011;34679;51.436;-2.518;2023-04-06T11:24:09;4.60;;;1.08;;
48859;SDS011;34679;51.436;-2.518;2023-04-06T11:29:05;6.95;;;1.10;;
48859;SDS011;34679;51.436;-2.518;2023-04-06T11:31:37;8.30;;;1.35;;
48859;SDS011;34679;51.436;-2.518;2023-04-06T11:34:13;5.57;;;1.70;;
48859;SDS011;34679;51.436;-2.518;2023-04-06T11:36:44;12.95;;;3.35;;
48859;SDS011;34679;51.436;-2.518;2023-04-06T11:39:12;10.82;;;3.90;;
48859;SDS011;34679;51.436;-2.518;2023-04-06T11:41:38;9.48;;;1.88;;
48859;SDS011;34679;51.436;-2.518;2023-04-06T11:44:05;9.05;;;2.03;;
48859;SDS011;34679;51.436;-2.518;2023-04-06T11:46:31;10.98;;;2.03;;
48859;SDS011;34679;51.436;-2.518;2023-04-06T11:48:58;7.95;;;1.40;;
48859;SDS011;34679;51.436;-2.518;2023-04-06T11:51:25;12.30;;;1.50;;
48859;SDS011;34679;51.436;-2.518;2023-04-06T11:53:52;8.65;;;2.08;;
48859;SDS011;34679;51.436;-2.518;2023-04-06T11:56:24;6.50;;;2.03;;
48859;SDS011;34679;51.436;-2.518;2023-04-06T11:58:56;10.45;;;2.30;;
48859;SDS011;34679;51.436;-2.518;2023-04-06T12:01:23;5.38;;;1.77;;
48859;SDS011;34679;51.436;-2.518;2023-04-06T12:03:50;8.35;;;1.90;;
48859;SDS011;34679;51.436;-2.518;2023-04-06T12:06:16;8.00;;;2.03;;
48859;SDS011;34679;51.436;-2.518;2023-04-06T12:08:42;11.60;;;1.98;;
48859;SDS011;34679;51.436;-2.518;2023-04-06T12:11:09;13.23;;;3.03;;
48859;SDS011;34679;51.436;-2.518;2023-04-06T12:13:35;12.25;;;2.30;;
48859;SDS011;34679;51.436;-2.518;2023-04-06T12:16:01;9.80;;;2.38;;
48859;SDS011;34679;51.436;-2.518;2023-04-06T12:18:27;13.25;;;2.53;;
48859;SDS011;34679;51.436;-2.518;2023-04-06T12:20:53;17.98;;;3.17;;
48859;SDS011;34679;51.436;-2.518;2023-04-06T12:23:18;11.95;;;2.08;;
48859;SDS011;34679;51.436;-2.518;2023-04-06T12:25:45;15.57;;;2.40;;
48859;SDS011;34679;51.436;-2.518;2023-04-06T12:28:10;7.93;;;1.88;;
48859;SDS011;34679;51.436;-2.518;2023-04-06T12:30:37;9.63;;;2.08;;
48859;SDS011;34679;51.436;-2.518;2023-04-06T12:33:03;11.55;;;1.70;;
48859;SDS011;34679;51.436;-2.518;2023-04-06T12:35:28;9.02;;;1.73;;
48859;SDS011;34679;51.436;-2.518;2023-04-06T12:37:58;6.78;;;1.35;;
48859;SDS011;34679;51.436;-2.518;2023-04-06T12:40:23;10.75;;;3.15;;
48859;SDS011;34679;51.436;-2.518;2023-04-06T12:42:49;13.57;;;2.38;;
48859;SDS011;34679;51.436;-2.518;2023-04-06T12:45:15;8.65;;;1.92;;
48859;SDS011;34679;51.436;-2.518;2023-04-06T12:47:41;8.93;;;1.92;;
48859;SDS011;34679;51.436;-2.518;2023-04-06T12:50:07;4.88;;;1.38;;
48859;SDS011;34679;51.436;-2.518;2023-04-06T12:52:33;4.05;;;1.23;;
48859;SDS011;34679;51.436;-2.518;2023-04-06T12:55:00;3.53;;;0.93;;
48859;SDS011;34679;51.436;-2.518;2023-04-06T12:57:27;3.22;;;0.70;;
48859;SDS011;34679;51.436;-2.518;2023-04-06T12:59:53;3.78;;;0.50;;
48859;SDS011;34679;51.436;-2.518;2023-04-06T13:02:18;3.90;;;0.40;;
48859;SDS011;34679;51.436;-2.518;2023-04-06T13:04:48;3.38;;;0.70;;
48859;SDS011;34679;51.436;-2.518;2023-04-06T13:07:14;2.97;;;0.35;;
48859;SDS011;34679;51.436;-2.518;2023-04-06T13:09:41;2.22;;;0.60;;
48859;SDS011;34679;51.436;-2.518;2023-04-06T13:12:06;1.40;;;0.52;;
48859;SDS011;34679;51.436;-2.518;2023-04-06T13:14:32;1.17;;;0.50;;
48859;SDS011;34679;51.436;-2.518;2023-04-06T13:16:58;0.98;;;0.45;;
48859;SDS011;34679;51.436;-2.518;2023-04-06T13:19:23;2.22;;;0.50;;
48859;SDS011;34679;51.436;-2.518;2023-04-06T13:21:50;2.83;;;0.50;;
48859;SDS011;34679;51.436;-2.518;2023-04-06T13:24:16;3.28;;;0.40;;
48859;SDS011;34679;51.436;-2.518;2023-04-06T13:26:41;1.38;;;0.47;;
48859;SDS011;34679;51.436;-2.518;2023-04-06T13:29:07;3.55;;;0.50;;
48859;SDS011;34679;51.436;-2.518;2023-04-06T13:31:33;3.22;;;0.55;;
48859;SDS011;34679;51.436;-2.518;2023-04-06T13:33:58;4.75;;;1.17;;
48859;SDS011;34679;51.436;-2.518;2023-04-06T13:36:25;3.58;;;1.08;;
48859;SDS011;34679;51.436;-2.518;2023-04-06T13:38:51;5.05;;;1.00;;
48859;SDS011;34679;51.436;-2.518;2023-04-06T13:41:21;9.50;;;1.08;;
48859;SDS011;34679;51.436;-2.518;2023-04-06T13:43:48;2.58;;;0.80;;
48859;SDS011;34679;51.436;-2.518;2023-04-06T13:46:15;4.43;;;1.10;;
48859;SDS011;34679;51.436;-2.518;2023-04-06T13:48:41;5.90;;;0.98;;
48859;SDS011;34679;51.436;-2.518;2023-04-06T13:51:11;2.88;;;0.85;;
48859;SDS011;34679;51.436;-2.518;2023-04-06T13:53:37;5.03;;;0.90;;
48859;SDS011;34679;51.436;-2.518;2023-04-06T13:56:03;10.43;;;0.93;;
48859;SDS011;34679;51.436;-2.518;2023-04-06T13:58:29;5.40;;;1.27;;
48859;SDS011;34679;51.436;-2.518;2023-04-06T14:01:01;3.72;;;1.02;;
48859;SDS011;34679;51.436;-2.518;2023-04-06T14:03:31;4.80;;;1.40;;
48859;SDS011;34679;51.436;-2.518;2023-04-06T14:05:57;4.25;;;1.08;;
48859;SDS011;34679;51.436;-2.518;2023-04-06T14:08:23;5.05;;;1.08;;
48859;SDS011;34679;51.436;-2.518;2023-04-06T14:10:48;5.72;;;1.73;;
48859;SDS011;34679;51.436;-2.518;2023-04-06T14:13:14;5.78;;;1.35;;
48859;SDS011;34679;51.436;-2.518;2023-04-06T14:15:40;7.70;;;1.35;;
48859;SDS011;34679;51.436;-2.518;2023-04-06T14:18:07;8.00;;;1.10;;
48859;SDS011;34679;51.436;-2.518;2023-04-06T14:20:33;4.70;;;1.83;;
48859;SDS011;34679;51.436;-2.518;2023-04-06T14:23:00;11.15;;;2.42;;
48859;SDS011;34679;51.436;-2.518;2023-04-06T14:25:26;12.68;;;1.75;;
48859;SDS011;34679;51.436;-2.518;2023-04-06T14:27:52;7.88;;;1.88;;
48859;SDS011;34679;51.436;-2.518;2023-04-06T14:30:18;5.18;;;1.50;;
48859;SDS011;34679;51.436;-2.518;2023-04-06T14:32:44;8.13;;;2.13;;
48859;SDS011;34679;51.436;-2.518;2023-04-06T14:35:10;5.57;;;1.42;;
48859;SDS011;34679;51.436;-2.518;2023-04-06T14:37:36;6.25;;;1.52;;